sensor_id;sensor_type;location;lat;lon;timestamp;pressure;altitude;pressure_sealevel;temperature;humidity
65276;BME280;51875;49.994;14.052;2023-07-30T00:00:12;97833.78;;;16.33;100.00
65276;BME280;51875;49.994;14.052;2023-07-30T00:01:35;97837.09;;;16.22;100.00
65276;BME280;51875;49.994;14.052;2023-07-30T00:02:50;97830.66;;;16.12;100.00
65276;BME280;51875;49.994;14.052;2023-07-30T00:04:06;97835.47;;;16.34;100.00
65276;BME280;51875;49.994;14.052;2023-07-30T00:05:21;97830.00;;;16.37;100.00
65276;BME280;51875;49.994;14.052;2023-07-30T00:06:37;97826.78;;;16.03;100.00
65276;BME280;51875;49.994;14.052;2023-07-30T00:07:52;97823.28;;;16.03;100.00
65276;BME280;51875;49.994;14.052;2023-07-30T00:09:09;97826.34;;;16.26;100.00
65276;BME280;51875;49.994;14.052;2023-07-30T00:10:24;97825.94;;;16.17;100.00
65276;BME280;51875;49.994;14.052;2023-07-30T00:11:40;97822.00;;;16.10;100.00
65276;BME280;51875;49.994;14.052;2023-07-30T00:12:55;97823.00;;;15.93;100.00
65276;BME280;51875;49.994;14.052;2023-07-30T00:14:10;97821.59;;;16.02;100.00
65276;BME280;51875;49.994;14.052;2023-07-30T00:15:26;97826.22;;;16.13;100.00
65276;BME280;51875;49.994;14.052;2023-07-30T00:16:41;97823.22;;;16.33;100.00
65276;BME280;51875;49.994;14.052;2023-07-30T00:17:57;97819.16;;;16.28;100.00
65276;BME280;51875;49.994;14.052;2023-07-30T00:19:12;97815.28;;;16.19;100.00
65276;BME280;51875;49.994;14.052;2023-07-30T00:20:27;97818.22;;;16.14;100.00
65276;BME280;51875;49.994;14.052;2023-07-30T00:21:43;97818.41;;;16.11;100.00
65276;BME280;51875;49.994;14.052;2023-07-30T00:23:01;97823.22;;;16.19;100.00
65276;BME280;51875;49.994;14.052;2023-07-30T00:24:16;97819.81;;;16.46;100.00
65276;BME280;51875;49.994;14.052;2023-07-30T00:25:32;97824.88;;;16.63;100.00
65276;BME280;51875;49.994;14.052;2023-07-30T00:26:47;97823.56;;;16.71;100.00
65276;BME280;51875;49.994;14.052;2023-07-30T00:28:03;97827.72;;;16.60;100.00
65276;BME280;51875;49.994;14.052;2023-07-30T00:29:18;97822.91;;;16.67;100.00
65276;BME280;51875;49.994;14.052;2023-07-30T00:30:34;97817.22;;;16.73;100.00
65276;BME280;51875;49.994;14.052;2023-07-30T00:31:49;97820.06;;;16.70;100.00
65276;BME280;51875;49.994;14.052;2023-07-30T00:33:04;97817.97;;;16.75;100.00
65276;BME280;51875;49.994;14.052;2023-07-30T00:34:19;97822.97;;;16.80;100.00
65276;BME280;51875;49.994;14.052;2023-07-30T00:35:35;97821.19;;;16.80;100.00
65276;BME280;51875;49.994;14.052;2023-07-30T00:36:50;97817.59;;;16.82;100.00
65276;BME280;51875;49.994;14.052;2023-07-30T00:38:06;97816.84;;;16.79;100.00
65276;BME280;51875;49.994;14.052;2023-07-30T00:39:21;97818.47;;;16.53;100.00
65276;BME280;51875;49.994;14.052;2023-07-30T00:40:40;97815.22;;;16.35;100.00
65276;BME280;51875;49.994;14.052;2023-07-30T00:41:56;97810.97;;;16.32;100.00
65276;BME280;51875;49.994;14.052;2023-07-30T00:43:11;97820.84;;;16.43;100.00
65276;BME280;51875;49.994;14.052;2023-07-30T00:44:27;97819.44;;;16.37;100.00
65276;BME280;51875;49.994;14.052;2023-07-30T00:45:43;97807.28;;;16.49;100.00
65276;BME280;51875;49.994;14.052;2023-07-30T00:46:59;97812.13;;;16.70;100.00
65276;BME280;51875;49.994;14.052;2023-07-30T00:48:14;97815.53;;;16.72;100.00
65276;BME280;51875;49.994;14.052;2023-07-30T00:49:29;97816.09;;;16.77;100.00
65276;BME280;51875;49.994;14.052;2023-07-30T00:50:45;97823.91;;;16.79;100.00
65276;BME280;51875;49.994;14.052;2023-07-30T00:52:01;97820.94;;;16.71;100.00
65276;BME280;51875;49.994;14.052;2023-07-30T00:53:16;97818.16;;;16.72;100.00
65276;BME280;51875;49.994;14.052;2023-07-30T00:54:33;97814.88;;;16.69;100.00
65276;BME280;51875;49.994;14.052;2023-07-30T00:55:49;97811.63;;;16.36;100.00
65276;BME280;51875;49.994;14.052;2023-07-30T00:57:04;97805.94;;;16.42;100.00
65276;BME280;51875;49.994;14.052;2023-07-30T00:58:23;97802.16;;;16.46;100.00
65276;BME280;51875;49.994;14.052;2023-07-30T00:59:39;97807.28;;;16.49;100.00
65276;BME280;51875;49.994;14.052;2023-07-30T01:00:54;97808.78;;;16.54;100.00
65276;BME280;51875;49.994;14.052;2023-07-30T01:02:10;97803.03;;;16.47;100.00
65276;BME280;51875;49.994;14.052;2023-07-30T01:03:25;97798.31;;;16.37;100.00
65276;BME280;51875;49.994;14.052;2023-07-30T01:04:41;97795.66;;;16.37;100.00
65276;BME280;51875;49.994;14.052;2023-07-30T01:05:57;97795.94;;;16.33;100.00
65276;BME280;51875;49.994;14.052;2023-07-30T01:07:12;97793.13;;;16.21;100.00
65276;BME280;51875;49.994;14.052;2023-07-30T01:08:28;97791.13;;;16.10;100.00
65276;BME280;51875;49.994;14.052;2023-07-30T01:09:43;97797.84;;;16.16;100.00
65276;BME280;51875;49.994;14.052;2023-07-30T01:10:59;97792.66;;;16.15;100.00
65276;BME280;51875;49.994;14.052;2023-07-30T01:12:15;97801.22;;;16.18;100.00
65276;BME280;51875;49.994;14.052;2023-07-30T01:13:30;97801.63;;;16.27;100.00
65276;BME280;51875;49.994;14.052;2023-07-30T01:14:46;97801.81;;;16.23;100.00
65276;BME280;51875;49.994;14.052;2023-07-30T01:16:02;97804.44;;;16.23;100.00
65276;BME280;51875;49.994;14.052;2023-07-30T01:17:19;97807.66;;;16.14;100.00
65276;BME280;51875;49.994;14.052;2023-07-30T01:18:34;97809.34;;;16.15;100.00
65276;BME280;51875;49.994;14.052;2023-07-30T01:19:52;97809.47;;;16.14;100.00
65276;BME280;51875;49.994;14.052;2023-07-30T01:21:09;97809.72;;;16.09;100.00
65276;BME280;51875;49.994;14.052;2023-07-30T01:22:25;97814.44;;;16.18;100.00
65276;BME280;51875;49.994;14.052;2023-07-30T01:23:40;97808.78;;;16.24;100.00
65276;BME280;51875;49.994;14.052;2023-07-30T01:24:56;97813.59;;;16.18;100.00
65276;BME280;51875;49.994;14.052;2023-07-30T01:26:12;97812.56;;;16.20;100.00
65276;BME280;51875;49.994;14.052;2023-07-30T01:27:33;97817.47;;;16.12;100.00
65276;BME280;51875;49.994;14.052;2023-07-30T01:28:51;97814.69;;;15.99;100.00
65276;BME280;51875;49.994;14.052;2023-07-30T01:30:16;97817.63;;;15.94;100.00
65276;BME280;51875;49.994;14.052;2023-07-30T01:31:33;97820.22;;;15.80;100.00
65276;BME280;51875;49.994;14.052;2023-07-30T01:32:50;97820.56;;;15.74;100.00
65276;BME280;51875;49.994;14.052;2023-07-30T01:34:07;97824.16;;;15.73;100.00
65276;BME280;51875;49.994;14.052;2023-07-30T01:35:26;97817.41;;;15.83;100.00
65276;BME280;51875;49.994;14.052;2023-07-30T01:36:41;97820.75;;;15.71;100.00
65276;BME280;51875;49.994;14.052;2023-07-30T01:37:58;97818.47;;;15.64;100.00
65276;BME280;51875;49.994;14.052;2023-07-30T01:39:14;97828.91;;;15.82;100.00
65276;BME280;51875;49.994;14.052;2023-07-30T01:40:29;97816.25;;;15.87;100.00
65276;BME280;51875;49.994;14.052;2023-07-30T01:41:45;97821.25;;;15.77;100.00
65276;BME280;51875;49.994;14.052;2023-07-30T01:43:00;97822.75;;;15.81;100.00
65276;BME280;51875;49.994;14.052;2023-07-30T01:44:15;97825.41;;;15.81;100.00
65276;BME280;51875;49.994;14.052;2023-07-30T01:45:31;97814.75;;;15.83;100.00
65276;BME280;51875;49.994;14.052;2023-07-30T01:46:46;97819.16;;;15.82;100.00
65276;BME280;51875;49.994;14.052;2023-07-30T01:48:02;97816.69;;;15.65;100.00
65276;BME280;51875;49.994;14.052;2023-07-30T01:49:17;97815.38;;;15.58;100.00
65276;BME280;51875;49.994;14.052;2023-07-30T01:50:33;97814.28;;;15.46;100.00
65276;BME280;51875;49.994;14.052;2023-07-30T01:51:48;97820.34;;;15.62;100.00
65276;BME280;51875;49.994;14.052;2023-07-30T01:53:03;97831.56;;;15.66;100.00
65276;BME280;51875;49.994;14.052;2023-07-30T01:54:19;97819.59;;;15.60;100.00
65276;BME280;51875;49.994;14.052;2023-07-30T01:55:34;97823.53;;;15.53;100.00
65276;BME280;51875;49.994;14.052;2023-07-30T01:56:50;97822.34;;;15.59;100.00
65276;BME280;51875;49.994;14.052;2023-07-30T01:58:05;97822.34;;;15.59;100.00
65276;BME280;51875;49.994;14.052;2023-07-30T01:59:21;97827.34;;;15.33;100.00
65276;BME280;51875;49.994;14.052;2023-07-30T02:00:36;97827.84;;;15.39;100.00
65276;BME280;51875;49.994;14.052;2023-07-30T02:01:52;97824.38;;;15.07;100.00
65276;BME280;51875;49.994;14.052;2023-07-30T02:03:07;97827.84;;;15.07;100.00
65276;BME280;51875;49.994;14.052;2023-07-30T02:04:23;97822.91;;;15.33;100.00
65276;BME280;51875;49.994;14.052;2023-07-30T02:05:38;97822.25;;;15.14;100.00
65276;BME280;51875;49.994;14.052;2023-07-30T02:06:53;97814.47;;;15.27;100.00
65276;BME280;51875;49.994;14.052;2023-07-30T02:08:09;97827.06;;;15.37;100.00
65276;BME280;51875;49.994;14.052;2023-07-30T02:09:25;97818.47;;;15.34;100.00
65276;BME280;51875;49.994;14.052;2023-07-30T02:10:40;97824.59;;;15.34;100.00
65276;BME280;51875;49.994;14.052;2023-07-30T02:11:55;97820.19;;;15.35;100.00
65276;BME280;51875;49.994;14.052;2023-07-30T02:13:11;97824.44;;;15.37;100.00
65276;BME280;51875;49.994;14.052;2023-07-30T02:14:26;97821.81;;;15.21;100.00
65276;BME280;51875;49.994;14.052;2023-07-30T02:15:42;97819.06;;;15.39;100.00
65276;BME280;51875;49.994;14.052;2023-07-30T02:16:57;97822.44;;;15.41;100.00
65276;BME280;51875;49.994;14.052;2023-07-30T02:18:12;97826.72;;;15.44;100.00
65276;BME280;51875;49.994;14.052;2023-07-30T02:19:28;97823.66;;;15.35;100.00
65276;BME280;51875;49.994;14.052;2023-07-30T02:20:43;97824.94;;;15.44;100.00
65276;BME280;51875;49.994;14.052;2023-07-30T02:21:59;97824.59;;;15.34;100.00
65276;BME280;51875;49.994;14.052;2023-07-30T02:23:14;97822.25;;;15.30;100.00
65276;BME280;51875;49.994;14.052;2023-07-30T02:24:31;97827.22;;;15.04;100.00
65276;BME280;51875;49.994;14.052;2023-07-30T02:25:46;97831.78;;;15.00;100.00
65276;BME280;51875;49.994;14.052;2023-07-30T02:27:02;97828.22;;;15.01;100.00
65276;BME280;51875;49.994;14.052;2023-07-30T02:28:17;97834.00;;;14.92;100.00
65276;BME280;51875;49.994;14.052;2023-07-30T02:29:33;97832.19;;;15.08;100.00
65276;BME280;51875;49.994;14.052;2023-07-30T02:30:48;97836.88;;;15.19;100.00
65276;BME280;51875;49.994;14.052;2023-07-30T02:32:03;97830.66;;;15.20;100.00
65276;BME280;51875;49.994;14.052;2023-07-30T02:33:19;97832.63;;;15.17;100.00
65276;BME280;51875;49.994;14.052;2023-07-30T02:34:35;97833.94;;;15.09;100.00
65276;BME280;51875;49.994;14.052;2023-07-30T02:35:50;97825.84;;;14.96;100.00
65276;BME280;51875;49.994;14.052;2023-07-30T02:37:05;97829.16;;;15.00;100.00
65276;BME280;51875;49.994;14.052;2023-07-30T02:38:20;97817.31;;;15.23;100.00
65276;BME280;51875;49.994;14.052;2023-07-30T02:39:36;97831.09;;;15.13;100.00
65276;BME280;51875;49.994;14.052;2023-07-30T02:40:51;97830.22;;;15.28;100.00
65276;BME280;51875;49.994;14.052;2023-07-30T02:42:07;97822.94;;;15.48;100.00
65276;BME280;51875;49.994;14.052;2023-07-30T02:43:22;97828.72;;;15.54;100.00
65276;BME280;51875;49.994;14.052;2023-07-30T02:44:38;97822.94;;;15.48;100.00
65276;BME280;51875;49.994;14.052;2023-07-30T02:45:53;97818.16;;;15.54;100.00
65276;BME280;51875;49.994;14.052;2023-07-30T02:47:08;97821.66;;;15.55;100.00
65276;BME280;51875;49.994;14.052;2023-07-30T02:48:24;97814.88;;;15.51;100.00
65276;BME280;51875;49.994;14.052;2023-07-30T02:49:39;97815.22;;;15.45;100.00
65276;BME280;51875;49.994;14.052;2023-07-30T02:50:54;97815.97;;;15.47;100.00
65276;BME280;51875;49.994;14.052;2023-07-30T02:52:10;97815.53;;;15.54;100.00
65276;BME280;51875;49.994;14.052;2023-07-30T02:53:25;97820.41;;;15.46;100.00
65276;BME280;51875;49.994;14.052;2023-07-30T02:54:41;97824.63;;;15.49;100.00
65276;BME280;51875;49.994;14.052;2023-07-30T02:55:56;97822.38;;;15.43;100.00
65276;BME280;51875;49.994;14.052;2023-07-30T02:57:11;97819.88;;;15.25;100.00
65276;BME280;51875;49.994;14.052;2023-07-30T02:58:28;97820.88;;;15.38;100.00
65276;BME280;51875;49.994;14.052;2023-07-30T02:59:43;97815.41;;;15.42;100.00
65276;BME280;51875;49.994;14.052;2023-07-30T03:01:05;97812.16;;;15.36;100.00
65276;BME280;51875;49.994;14.052;2023-07-30T03:02:21;97820.06;;;15.36;100.00
65276;BME280;51875;49.994;14.052;2023-07-30T03:03:36;97817.03;;;15.28;100.00
65276;BME280;51875;49.994;14.052;2023-07-30T03:04:51;97819.75;;;15.27;100.00
65276;BME280;51875;49.994;14.052;2023-07-30T03:06:07;97817.16;;;15.41;100.00
65276;BME280;51875;49.994;14.052;2023-07-30T03:07:22;97824.00;;;15.45;100.00
65276;BME280;51875;49.994;14.052;2023-07-30T03:08:38;97817.94;;;15.43;100.00
65276;BME280;51875;49.994;14.052;2023-07-30T03:09:53;97817.44;;;15.36;100.00
65276;BME280;51875;49.994;14.052;2023-07-30T03:11:09;97817.44;;;15.36;100.00
65276;BME280;51875;49.994;14.052;2023-07-30T03:12:24;97819.91;;;15.39;100.00
65276;BME280;51875;49.994;14.052;2023-07-30T03:13:40;97818.59;;;15.47;100.00
65276;BME280;51875;49.994;14.052;2023-07-30T03:14:55;97824.94;;;15.44;100.00
65276;BME280;51875;49.994;14.052;2023-07-30T03:16:10;97816.91;;;15.46;100.00
65276;BME280;51875;49.994;14.052;2023-07-30T03:17:26;97821.38;;;15.29;100.00
65276;BME280;51875;49.994;14.052;2023-07-30T03:18:41;97824.22;;;15.10;100.00
65276;BME280;51875;49.994;14.052;2023-07-30T03:19:56;97820.56;;;15.13;100.00
65276;BME280;51875;49.994;14.052;2023-07-30T03:21:12;97817.66;;;15.17;100.00
65276;BME280;51875;49.994;14.052;2023-07-30T03:22:27;97822.34;;;15.12;100.00
65276;BME280;51875;49.994;14.052;2023-07-30T03:23:43;97817.16;;;15.10;100.00
65276;BME280;51875;49.994;14.052;2023-07-30T03:24:59;97815.88;;;15.18;100.00
65276;BME280;51875;49.994;14.052;2023-07-30T03:26:14;97824.63;;;15.18;100.00
65276;BME280;51875;49.994;14.052;2023-07-30T03:27:30;97812.91;;;15.24;100.00
65276;BME280;51875;49.994;14.052;2023-07-30T03:28:45;97808.44;;;15.24;100.00
65276;BME280;51875;49.994;14.052;2023-07-30T03:30:01;97813.09;;;15.05;100.00
65276;BME280;51875;49.994;14.052;2023-07-30T03:31:16;97809.00;;;14.99;100.00
65276;BME280;51875;49.994;14.052;2023-07-30T03:32:31;97813.75;;;15.08;100.00
65276;BME280;51875;49.994;14.052;2023-07-30T03:33:47;97811.91;;;14.94;100.00
65276;BME280;51875;49.994;14.052;2023-07-30T03:35:02;97810.84;;;15.13;100.00
65276;BME280;51875;49.994;14.052;2023-07-30T03:36:18;97808.28;;;15.28;100.00
65276;BME280;51875;49.994;14.052;2023-07-30T03:37:33;97813.03;;;15.21;100.00
65276;BME280;51875;49.994;14.052;2023-07-30T03:38:49;97803.44;;;15.20;100.00
65276;BME280;51875;49.994;14.052;2023-07-30T03:40:04;97805.63;;;15.28;100.00
65276;BME280;51875;49.994;14.052;2023-07-30T03:41:20;97802.84;;;15.31;100.00
65276;BME280;51875;49.994;14.052;2023-07-30T03:42:35;97800.69;;;15.37;100.00
65276;BME280;51875;49.994;14.052;2023-07-30T03:43:51;97797.13;;;15.38;100.00
65276;BME280;51875;49.994;14.052;2023-07-30T03:45:06;97800.41;;;15.42;100.00
65276;BME280;51875;49.994;14.052;2023-07-30T03:46:22;97803.72;;;15.46;100.00
65276;BME280;51875;49.994;14.052;2023-07-30T03:47:37;97799.31;;;15.46;100.00
65276;BME280;51875;49.994;14.052;2023-07-30T03:48:53;97800.59;;;15.39;100.00
65276;BME280;51875;49.994;14.052;2023-07-30T03:50:08;97797.50;;;15.47;100.00
65276;BME280;51875;49.994;14.052;2023-07-30T03:51:23;97787.63;;;15.50;100.00
65276;BME280;51875;49.994;14.052;2023-07-30T03:52:39;97788.25;;;15.39;100.00
65276;BME280;51875;49.994;14.052;2023-07-30T03:53:55;97787.13;;;15.44;100.00
65276;BME280;51875;49.994;14.052;2023-07-30T03:55:10;97788.00;;;15.44;100.00
65276;BME280;51875;49.994;14.052;2023-07-30T03:56:25;97794.28;;;15.42;100.00
65276;BME280;51875;49.994;14.052;2023-07-30T03:57:41;97788.41;;;15.36;100.00
65276;BME280;51875;49.994;14.052;2023-07-30T03:58:56;97789.09;;;15.40;100.00
65276;BME280;51875;49.994;14.052;2023-07-30T04:00:12;97794.78;;;15.48;100.00
65276;BME280;51875;49.994;14.052;2023-07-30T04:01:27;97792.91;;;15.50;100.00
65276;BME280;51875;49.994;14.052;2023-07-30T04:02:44;97796.31;;;15.52;100.00
65276;BME280;51875;49.994;14.052;2023-07-30T04:03:59;97795.97;;;15.59;100.00
65276;BME280;51875;49.994;14.052;2023-07-30T04:05:15;97793.50;;;15.70;100.00
65276;BME280;51875;49.994;14.052;2023-07-30T04:06:30;97799.84;;;15.67;100.00
65276;BME280;51875;49.994;14.052;2023-07-30T04:07:45;97794.44;;;15.69;100.00
65276;BME280;51875;49.994;14.052;2023-07-30T04:09:01;97798.69;;;15.72;100.00
65276;BME280;51875;49.994;14.052;2023-07-30T04:10:16;97796.75;;;15.75;100.00
65276;BME280;51875;49.994;14.052;2023-07-30T04:11:31;97802.38;;;15.84;100.00
65276;BME280;51875;49.994;14.052;2023-07-30T04:12:47;97800.25;;;15.90;100.00
65276;BME280;51875;49.994;14.052;2023-07-30T04:14:02;97801.28;;;15.88;100.00
65276;BME280;51875;49.994;14.052;2023-07-30T04:15:20;97804.72;;;15.90;100.00
65276;BME280;51875;49.994;14.052;2023-07-30T04:16:35;97807.16;;;15.93;100.00
65276;BME280;51875;49.994;14.052;2023-07-30T04:17:50;97814.06;;;15.95;100.00
65276;BME280;51875;49.994;14.052;2023-07-30T04:19:06;97810.00;;;15.90;100.00
65276;BME280;51875;49.994;14.052;2023-07-30T04:20:21;97813.47;;;16.05;100.00
65276;BME280;51875;49.994;14.052;2023-07-30T04:21:37;97814.31;;;15.91;100.00
65276;BME280;51875;49.994;14.052;2023-07-30T04:22:52;97811.63;;;16.07;100.00
65276;BME280;51875;49.994;14.052;2023-07-30T04:24:08;97815.00;;;16.09;100.00
65276;BME280;51875;49.994;14.052;2023-07-30T04:25:23;97815.66;;;16.13;100.00
65276;BME280;51875;49.994;14.052;2023-07-30T04:26:38;97809.88;;;16.06;100.00
65276;BME280;51875;49.994;14.052;2023-07-30T04:27:54;97814.25;;;16.07;100.00
65276;BME280;51875;49.994;14.052;2023-07-30T04:29:09;97815.97;;;16.08;100.00
65276;BME280;51875;49.994;14.052;2023-07-30T04:30:25;97816.78;;;16.08;100.00
65276;BME280;51875;49.994;14.052;2023-07-30T04:31:42;97812.84;;;16.16;100.00
65276;BME280;51875;49.994;14.052;2023-07-30T04:32:58;97819.81;;;16.31;100.00
65276;BME280;51875;49.994;14.052;2023-07-30T04:34:13;97824.16;;;16.32;100.00
65276;BME280;51875;49.994;14.052;2023-07-30T04:35:36;97822.66;;;16.43;100.00
65276;BME280;51875;49.994;14.052;2023-07-30T04:36:51;97818.97;;;16.45;100.00
65276;BME280;51875;49.994;14.052;2023-07-30T04:38:06;97817.38;;;16.43;100.00
65276;BME280;51875;49.994;14.052;2023-07-30T04:39:22;97817.72;;;16.51;100.00
65276;BME280;51875;49.994;14.052;2023-07-30T04:40:37;97813.38;;;16.50;100.00
65276;BME280;51875;49.994;14.052;2023-07-30T04:41:53;97818.94;;;16.60;100.00
65276;BME280;51875;49.994;14.052;2023-07-30T04:43:09;97815.06;;;16.65;100.00
65276;BME280;51875;49.994;14.052;2023-07-30T04:44:24;97829.22;;;16.64;100.00
65276;BME280;51875;49.994;14.052;2023-07-30T04:45:39;97829.22;;;16.64;100.00
65276;BME280;51875;49.994;14.052;2023-07-30T04:46:55;97832.91;;;16.62;100.00
65276;BME280;51875;49.994;14.052;2023-07-30T04:48:11;97830.28;;;16.76;100.00
65276;BME280;51875;49.994;14.052;2023-07-30T04:49:26;97826.84;;;16.74;100.00
65276;BME280;51875;49.994;14.052;2023-07-30T04:50:41;97833.97;;;16.59;100.00
65276;BME280;51875;49.994;14.052;2023-07-30T04:51:57;97839.22;;;16.74;100.00
65276;BME280;51875;49.994;14.052;2023-07-30T04:53:12;97837.13;;;16.79;100.00
65276;BME280;51875;49.994;14.052;2023-07-30T04:54:28;97839.00;;;16.91;100.00
65276;BME280;51875;49.994;14.052;2023-07-30T04:55:43;97842.88;;;17.00;100.00
65276;BME280;51875;49.994;14.052;2023-07-30T04:56:59;97838.47;;;17.01;100.00
65276;BME280;51875;49.994;14.052;2023-07-30T04:58:14;97839.19;;;17.03;100.00
65276;BME280;51875;49.994;14.052;2023-07-30T04:59:30;97841.56;;;17.07;100.00
65276;BME280;51875;49.994;14.052;2023-07-30T05:00:45;97842.78;;;17.02;100.00
65276;BME280;51875;49.994;14.052;2023-07-30T05:02:01;97838.16;;;17.05;100.00
65276;BME280;51875;49.994;14.052;2023-07-30T05:03:16;97845.16;;;16.92;100.00
65276;BME280;51875;49.994;14.052;2023-07-30T05:04:31;97847.22;;;17.01;100.00
65276;BME280;51875;49.994;14.052;2023-07-30T05:05:47;97846.84;;;16.93;100.00
65276;BME280;51875;49.994;14.052;2023-07-30T05:07:03;97847.38;;;17.13;100.00
65276;BME280;51875;49.994;14.052;2023-07-30T05:08:18;97844.38;;;17.19;100.00
65276;BME280;51875;49.994;14.052;2023-07-30T05:09:33;97841.34;;;17.11;100.00
65276;BME280;51875;49.994;14.052;2023-07-30T05:10:49;97844.41;;;17.32;100.00
65276;BME280;51875;49.994;14.052;2023-07-30T05:12:04;97835.81;;;17.28;100.00
65276;BME280;51875;49.994;14.052;2023-07-30T05:13:20;97839.03;;;17.33;100.00
65276;BME280;51875;49.994;14.052;2023-07-30T05:14:35;97845.78;;;17.38;100.00
65276;BME280;51875;49.994;14.052;2023-07-30T05:15:51;97839.63;;;17.37;100.00
65276;BME280;51875;49.994;14.052;2023-07-30T05:17:06;97831.63;;;17.39;100.00
65276;BME280;51875;49.994;14.052;2023-07-30T05:18:21;97830.75;;;17.38;100.00
65276;BME280;51875;49.994;14.052;2023-07-30T05:19:37;97826.31;;;17.39;100.00
65276;BME280;51875;49.994;14.052;2023-07-30T05:20:52;97822.50;;;17.43;100.00
65276;BME280;51875;49.994;14.052;2023-07-30T05:22:07;97826.13;;;17.42;100.00
65276;BME280;51875;49.994;14.052;2023-07-30T05:23:23;97833.66;;;17.48;100.00
65276;BME280;51875;49.994;14.052;2023-07-30T05:24:38;97825.47;;;17.38;100.00
65276;BME280;51875;49.994;14.052;2023-07-30T05:25:54;97831.53;;;17.40;100.00
65276;BME280;51875;49.994;14.052;2023-07-30T05:27:09;97826.56;;;17.48;100.00
65276;BME280;51875;49.994;14.052;2023-07-30T05:28:25;97834.41;;;17.50;100.00
65276;BME280;51875;49.994;14.052;2023-07-30T05:29:41;97830.56;;;17.41;100.00
65276;BME280;51875;49.994;14.052;2023-07-30T05:30:56;97832.28;;;17.55;100.00
65276;BME280;51875;49.994;14.052;2023-07-30T05:32:11;97838.16;;;17.60;100.00
65276;BME280;51875;49.994;14.052;2023-07-30T05:33:27;97840.22;;;17.55;100.00
65276;BME280;51875;49.994;14.052;2023-07-30T05:34:43;97835.88;;;17.54;100.00
65276;BME280;51875;49.994;14.052;2023-07-30T05:35:58;97842.66;;;17.58;100.00
65276;BME280;51875;49.994;14.052;2023-07-30T05:37:14;97838.25;;;17.59;100.00
65276;BME280;51875;49.994;14.052;2023-07-30T05:38:29;97844.56;;;17.56;100.00
65276;BME280;51875;49.994;14.052;2023-07-30T05:39:45;97845.19;;;17.47;100.00
65276;BME280;51875;49.994;14.052;2023-07-30T05:41:00;97845.00;;;17.50;100.00
65276;BME280;51875;49.994;14.052;2023-07-30T05:42:15;97854.44;;;17.27;100.00
65276;BME280;51875;49.994;14.052;2023-07-30T05:43:31;97849.72;;;17.45;100.00
65276;BME280;51875;49.994;14.052;2023-07-30T05:44:46;97857.47;;;17.48;100.00
65276;BME280;51875;49.994;14.052;2023-07-30T05:46:01;97864.06;;;17.55;100.00
65276;BME280;51875;49.994;14.052;2023-07-30T05:47:17;97864.72;;;17.59;100.00
65276;BME280;51875;49.994;14.052;2023-07-30T05:48:32;97861.34;;;17.70;100.00
65276;BME280;51875;49.994;14.052;2023-07-30T05:49:48;97866.63;;;17.70;100.00
65276;BME280;51875;49.994;14.052;2023-07-30T05:51:03;97863.53;;;17.63;100.00
65276;BME280;51875;49.994;14.052;2023-07-30T05:52:19;97867.66;;;17.54;100.00
65276;BME280;51875;49.994;14.052;2023-07-30T05:53:34;97861.09;;;17.60;100.00
65276;BME280;51875;49.994;14.052;2023-07-30T05:54:49;97867.19;;;17.75;100.00
65276;BME280;51875;49.994;14.052;2023-07-30T05:56:05;97864.03;;;17.83;100.00
65276;BME280;51875;49.994;14.052;2023-07-30T05:57:20;97871.69;;;18.00;100.00
65276;BME280;51875;49.994;14.052;2023-07-30T05:58:36;97869.31;;;17.83;100.00
65276;BME280;51875;49.994;14.052;2023-07-30T05:59:51;97874.28;;;17.87;100.00
65276;BME280;51875;49.994;14.052;2023-07-30T06:01:07;97874.28;;;17.87;100.00
65276;BME280;51875;49.994;14.052;2023-07-30T06:02:22;97871.75;;;17.86;100.00
65276;BME280;51875;49.994;14.052;2023-07-30T06:03:38;97875.25;;;17.86;100.00
65276;BME280;51875;49.994;14.052;2023-07-30T06:04:53;97873.81;;;17.95;100.00
65276;BME280;51875;49.994;14.052;2023-07-30T06:06:08;97870.72;;;17.88;100.00
65276;BME280;51875;49.994;14.052;2023-07-30T06:07:24;97871.16;;;17.95;100.00
65276;BME280;51875;49.994;14.052;2023-07-30T06:08:39;97881.84;;;17.93;100.00
65276;BME280;51875;49.994;14.052;2023-07-30T06:09:55;97875.00;;;18.04;100.00
65276;BME280;51875;49.994;14.052;2023-07-30T06:11:10;97875.84;;;18.04;100.00
65276;BME280;51875;49.994;14.052;2023-07-30T06:12:25;97873.19;;;18.04;100.00
65276;BME280;51875;49.994;14.052;2023-07-30T06:13:41;97872.22;;;18.05;100.00
65276;BME280;51875;49.994;14.052;2023-07-30T06:14:56;97872.34;;;18.04;100.00
65276;BME280;51875;49.994;14.052;2023-07-30T06:16:12;97878.91;;;18.11;100.00
65276;BME280;51875;49.994;14.052;2023-07-30T06:17:27;97873.41;;;18.14;100.00
65276;BME280;51875;49.994;14.052;2023-07-30T06:18:43;97864.41;;;18.04;100.00
65276;BME280;51875;49.994;14.052;2023-07-30T06:19:58;97863.50;;;17.90;100.00
65276;BME280;51875;49.994;14.052;2023-07-30T06:21:14;97862.50;;;17.65;100.00
65276;BME280;51875;49.994;14.052;2023-07-30T06:22:29;97857.53;;;17.74;100.00
65276;BME280;51875;49.994;14.052;2023-07-30T06:23:45;97849.19;;;17.67;100.00
65276;BME280;51875;49.994;14.052;2023-07-30T06:25:00;97850.78;;;17.83;100.00
65276;BME280;51875;49.994;14.052;2023-07-30T06:26:16;97855.88;;;17.86;100.00
65276;BME280;51875;49.994;14.052;2023-07-30T06:27:31;97849.63;;;18.00;100.00
65276;BME280;51875;49.994;14.052;2023-07-30T06:28:47;97859.47;;;17.98;100.00
65276;BME280;51875;49.994;14.052;2023-07-30T06:30:02;97859.03;;;17.91;100.00